Time;durP1;ratioP1;P1;durP2;ratioP2;P2;SDS_P1;SDS_P2;PMS_P1;PMS_P2;Temp;Humidity;BMP_temperature;BMP_pressure;BME280_temperature;BME280_humidity;BME280_pressure;Samples;Min_cycle;Max_cycle;Signal;HPM_P1;HPM_P2
2022/11/13 00:00:51;;;;;;;7.07;3.22;;;;;;;;;;6164647;23;20366;-46
2022/11/13 00:03:18;;;;;;;6.15;3.40;;;;;;;;;;6160676;23;20024;-47
2022/11/13 00:05:45;;;;;;;6.50;3.03;;;;;;;;;;6157160;23;20023;-46
2022/11/13 00:08:11;;;;;;;5.38;3.25;;;;;;;;;;6130225;22;20070;-46
2022/11/13 00:10:38;;;;;;;6.05;3.03;;;;;;;;;;6159399;23;20020;-49
2022/11/13 00:13:05;;;;;;;9.77;4.80;;;;;;;;;;6158576;23;20080;-46
2022/11/13 00:15:31;;;;;;;6.25;2.85;;;;;;;;;;6161225;23;20567;-47
2022/11/13 00:18:03;;;;;;;5.33;2.73;;;;;;;;;;6157451;23;20017;-47
2022/11/13 00:20:30;;;;;;;5.18;2.90;;;;;;;;;;6167104;23;20076;-47
2022/11/13 00:22:57;;;;;;;7.32;3.67;;;;;;;;;;6158256;23;20099;-48
2022/11/13 00:25:23;;;;;;;6.07;3.30;;;;;;;;;;6159595;23;20281;-47
2022/11/13 00:27:50;;;;;;;7.63;4.20;;;;;;;;;;6159261;23;20026;-45
2022/11/13 00:30:16;;;;;;;10.53;3.83;;;;;;;;;;6165153;23;20013;-47
2022/11/13 00:32:43;;;;;;;8.50;3.58;;;;;;;;;;6149307;23;20331;-48
2022/11/13 00:35:11;;;;;;;8.02;5.00;;;;;;;;;;6162756;23;20017;-45
2022/11/13 00:37:38;;;;;;;7.35;3.60;;;;;;;;;;6162789;23;20019;-47
2022/11/13 00:40:05;;;;;;;5.75;2.78;;;;;;;;;;6163977;23;20078;-46
2022/11/13 00:42:32;;;;;;;13.00;4.63;;;;;;;;;;6158886;23;20344;-47
2022/11/13 00:44:58;;;;;;;8.02;3.97;;;;;;;;;;6166375;23;20016;-47
2022/11/13 00:47:24;;;;;;;11.27;3.58;;;;;;;;;;6152232;23;20024;-49
2022/11/13 00:49:51;;;;;;;5.53;3.08;;;;;;;;;;6170154;23;20063;-47
2022/11/13 00:52:19;;;;;;;7.95;4.50;;;;;;;;;;6160105;23;20031;-46
2022/11/13 00:54:45;;;;;;;8.87;4.80;;;;;;;;;;6107746;23;20226;-48
2022/11/13 00:57:12;;;;;;;7.00;3.42;;;;;;;;;;6164969;23;20025;-46
2022/11/13 00:59:38;;;;;;;6.47;3.92;;;;;;;;;;6155526;23;20063;-49
2022/11/13 01:02:05;;;;;;;7.75;4.07;;;;;;;;;;6159768;23;20103;-45
2022/11/13 01:04:31;;;;;;;7.03;4.18;;;;;;;;;;6162206;23;20407;-46
2022/11/13 01:06:58;;;;;;;7.07;3.47;;;;;;;;;;6124521;23;20637;-49
2022/11/13 01:09:26;;;;;;;6.07;3.67;;;;;;;;;;6153162;23;20016;-46
2022/11/13 01:11:52;;;;;;;10.38;3.25;;;;;;;;;;6162087;23;20020;-45
2022/11/13 01:14:19;;;;;;;5.90;3.30;;;;;;;;;;6161453;23;20020;-45
2022/11/13 01:16:45;;;;;;;5.68;3.05;;;;;;;;;;6150535;23;20020;-45
2022/11/13 01:19:12;;;;;;;6.67;3.40;;;;;;;;;;6155163;23;20363;-46
2022/11/13 01:21:39;;;;;;;8.30;3.58;;;;;;;;;;6139601;23;20095;-48
2022/11/13 01:24:05;;;;;;;6.75;3.50;;;;;;;;;;6159015;23;20016;-47
2022/11/13 01:26:33;;;;;;;7.18;3.60;;;;;;;;;;6163778;23;20066;-49
2022/11/13 01:29:02;;;;;;;7.10;3.95;;;;;;;;;;6158041;23;20029;-46
2022/11/13 01:31:31;;;;;;;6.30;3.23;;;;;;;;;;6153979;23;20016;-47
2022/11/13 01:33:59;;;;;;;7.95;4.40;;;;;;;;;;6161809;23;20029;-46
2022/11/13 01:36:27;;;;;;;6.57;3.92;;;;;;;;;;6159461;23;20087;-47
2022/11/13 01:38:54;;;;;;;7.13;3.55;;;;;;;;;;6159034;23;20020;-49
2022/11/13 01:41:22;;;;;;;6.78;4.50;;;;;;;;;;6163545;23;20048;-46
2022/11/13 01:43:50;;;;;;;8.50;3.23;;;;;;;;;;6158630;23;20016;-45
2022/11/13 01:46:24;;;;;;;7.72;4.53;;;;;;;;;;6164730;23;20020;-47
2022/11/13 01:48:53;;;;;;;7.13;3.67;;;;;;;;;;6118187;22;20025;-45
2022/11/13 01:51:24;;;;;;;6.93;3.78;;;;;;;;;;6158579;23;20028;-46
2022/11/13 01:53:51;;;;;;;5.88;3.40;;;;;;;;;;6161134;23;20419;-46
2022/11/13 01:56:17;;;;;;;6.77;4.27;;;;;;;;;;6159090;23;20458;-46
2022/11/13 01:58:48;;;;;;;5.00;2.72;;;;;;;;;;6153491;23;20850;-49
2022/11/13 02:01:16;;;;;;;7.28;3.17;;;;;;;;;;6162775;23;20017;-46
2022/11/13 02:03:44;;;;;;;6.07;3.40;;;;;;;;;;6160701;23;20406;-46
2022/11/13 02:06:11;;;;;;;6.72;3.90;;;;;;;;;;6160815;23;20024;-45
2022/11/13 02:08:38;;;;;;;7.80;3.67;;;;;;;;;;6097186;23;20440;-45
2022/11/13 02:11:04;;;;;;;10.20;4.20;;;;;;;;;;6124114;23;20447;-45
2022/11/13 02:13:31;;;;;;;7.18;4.03;;;;;;;;;;6138726;23;20017;-45
2022/11/13 02:15:57;;;;;;;8.57;4.07;;;;;;;;;;6124401;23;20421;-47
2022/11/13 02:18:27;;;;;;;5.90;2.53;;;;;;;;;;6131091;23;20370;-45
2022/11/13 02:20:57;;;;;;;8.07;3.77;;;;;;;;;;6128743;23;20020;-47
2022/11/13 02:23:28;;;;;;;6.38;3.08;;;;;;;;;;6106776;23;20377;-46
2022/11/13 02:25:56;;;;;;;8.30;4.00;;;;;;;;;;6130824;23;20024;-46
2022/11/13 02:28:24;;;;;;;9.23;4.60;;;;;;;;;;6126369;23;20297;-46
2022/11/13 02:30:50;;;;;;;6.88;3.40;;;;;;;;;;6133590;23;20017;-47
2022/11/13 02:33:20;;;;;;;10.97;4.63;;;;;;;;;;6115120;23;20474;-47
2022/11/13 02:35:47;;;;;;;5.95;3.88;;;;;;;;;;6125996;23;20013;-50
2022/11/13 02:38:13;;;;;;;5.43;2.65;;;;;;;;;;6133799;23;20024;-45
2022/11/13 02:40:40;;;;;;;5.60;3.03;;;;;;;;;;6124849;23;20388;-49
2022/11/13 02:43:07;;;;;;;7.00;4.22;;;;;;;;;;6124813;23;20017;-47
2022/11/13 02:45:34;;;;;;;6.63;3.67;;;;;;;;;;6090323;23;20027;-48
2022/11/13 02:48:01;;;;;;;7.35;3.83;;;;;;;;;;6127903;23;20028;-49
2022/11/13 02:50:28;;;;;;;7.47;4.30;;;;;;;;;;6118448;23;20577;-46
2022/11/13 02:52:54;;;;;;;9.73;4.40;;;;;;;;;;6083562;23;20017;-45
2022/11/13 02:55:23;;;;;;;5.65;3.15;;;;;;;;;;6075794;23;20463;-45
2022/11/13 02:57:53;;;;;;;8.33;5.20;;;;;;;;;;6084461;23;20021;-46
2022/11/13 03:00:23;;;;;;;6.63;3.25;;;;;;;;;;6091174;23;20371;-47
2022/11/13 03:02:49;;;;;;;6.18;3.00;;;;;;;;;;6101990;23;20017;-46
2022/11/13 03:05:16;;;;;;;6.32;2.63;;;;;;;;;;6101704;23;20017;-45
2022/11/13 03:07:44;;;;;;;6.80;3.53;;;;;;;;;;6049206;23;20869;-47
2022/11/13 03:10:11;;;;;;;6.40;2.80;;;;;;;;;;6089018;23;20017;-45
2022/11/13 03:12:39;;;;;;;8.27;4.25;;;;;;;;;;6091384;23;20017;-45
2022/11/13 03:15:06;;;;;;;9.60;4.13;;;;;;;;;;6092637;23;20060;-46
2022/11/13 03:17:34;;;;;;;8.50;4.25;;;;;;;;;;6103399;23;20025;-48
2022/11/13 03:20:00;;;;;;;5.65;3.72;;;;;;;;;;6099594;23;20017;-47
2022/11/13 03:22:27;;;;;;;7.70;4.33;;;;;;;;;;6104721;23;20500;-50
2022/11/13 03:24:54;;;;;;;5.57;3.05;;;;;;;;;;6101440;23;20064;-45
2022/11/13 03:27:20;;;;;;;5.45;3.83;;;;;;;;;;6101515;23;20076;-47
2022/11/13 03:29:47;;;;;;;5.97;3.03;;;;;;;;;;6103717;23;20021;-45
2022/11/13 03:32:13;;;;;;;7.88;3.60;;;;;;;;;;6103142;23;20029;-48
2022/11/13 03:34:42;;;;;;;6.73;3.83;;;;;;;;;;6106242;23;20018;-45
2022/11/13 03:37:09;;;;;;;6.25;3.45;;;;;;;;;;6103444;23;20716;-49
2022/11/13 03:39:36;;;;;;;7.55;4.50;;;;;;;;;;6055897;23;20404;-47
2022/11/13 03:42:04;;;;;;;9.30;5.00;;;;;;;;;;6104542;23;20470;-47
2022/11/13 03:44:30;;;;;;;6.97;3.85;;;;;;;;;;6093043;23;20025;-46
2022/11/13 03:46:57;;;;;;;6.73;3.77;;;;;;;;;;6104550;23;20399;-46
2022/11/13 03:49:24;;;;;;;7.35;2.88;;;;;;;;;;6097200;23;20632;-46
2022/11/13 03:51:52;;;;;;;8.35;3.72;;;;;;;;;;6106927;23;20025;-46
2022/11/13 03:54:18;;;;;;;5.20;2.80;;;;;;;;;;6075376;23;20496;-46
2022/11/13 03:56:45;;;;;;;6.70;4.35;;;;;;;;;;6070516;23;20387;-47
2022/11/13 03:59:12;;;;;;;7.50;2.83;;;;;;;;;;6104886;23;20433;-48
2022/11/13 04:01:38;;;;;;;8.60;4.65;;;;;;;;;;6098874;23;20025;-47
2022/11/13 04:04:05;;;;;;;14.23;4.50;;;;;;;;;;6095737;23;20025;-45
2022/11/13 04:06:31;;;;;;;6.57;4.35;;;;;;;;;;6103520;23;20021;-46
2022/11/13 04:08:59;;;;;;;8.82;5.03;;;;;;;;;;6065624;23;20386;-47
2022/11/13 04:11:26;;;;;;;10.67;5.87;;;;;;;;;;6101605;23;20021;-47
2022/11/13 04:13:52;;;;;;;8.95;5.32;;;;;;;;;;6100658;23;20021;-46
2022/11/13 04:16:19;;;;;;;5.03;3.65;;;;;;;;;;6099799;23;20054;-48
2022/11/13 04:18:45;;;;;;;7.60;2.97;;;;;;;;;;6098839;23;20021;-47
2022/11/13 04:21:11;;;;;;;6.07;3.40;;;;;;;;;;6105485;23;20089;-50
2022/11/13 04:23:39;;;;;;;8.70;3.33;;;;;;;;;;6106394;23;20500;-47
2022/11/13 04:26:07;;;;;;;6.75;3.80;;;;;;;;;;6101869;23;20655;-45
2022/11/13 04:28:33;;;;;;;9.75;4.05;;;;;;;;;;6099717;23;20531;-48
2022/11/13 04:31:00;;;;;;;6.03;3.35;;;;;;;;;;6103953;23;20013;-48
2022/11/13 04:33:26;;;;;;;7.43;2.97;;;;;;;;;;6096685;23;20024;-47
2022/11/13 04:35:53;;;;;;;7.20;3.83;;;;;;;;;;6055151;23;20056;-46
2022/11/13 04:38:20;;;;;;;6.82;3.28;;;;;;;;;;6097370;23;20034;-46
2022/11/13 04:40:49;;;;;;;7.22;2.75;;;;;;;;;;6099859;23;20064;-50
2022/11/13 04:43:15;;;;;;;7.55;3.92;;;;;;;;;;6106000;23;20041;-47
2022/11/13 04:45:43;;;;;;;8.70;3.20;;;;;;;;;;6101625;23;20032;-47
2022/11/13 04:48:09;;;;;;;5.20;2.83;;;;;;;;;;6104104;23;20404;-47
2022/11/13 04:50:36;;;;;;;11.40;4.32;;;;;;;;;;6102646;23;20025;-46
2022/11/13 04:53:04;;;;;;;6.15;2.70;;;;;;;;;;6103196;23;20301;-45
2022/11/13 04:55:31;;;;;;;7.32;3.78;;;;;;;;;;6094052;23;20524;-46
2022/11/13 04:57:57;;;;;;;6.30;3.60;;;;;;;;;;6103550;23;20355;-46
2022/11/13 05:00:25;;;;;;;7.93;2.57;;;;;;;;;;6104339;23;20036;-45
2022/11/13 05:02:52;;;;;;;6.22;3.47;;;;;;;;;;6109549;23;20033;-49
2022/11/13 05:05:18;;;;;;;5.43;2.53;;;;;;;;;;6108797;23;20017;-49
2022/11/13 05:07:45;;;;;;;6.93;2.92;;;;;;;;;;6121666;23;20018;-46
2022/11/13 05:10:11;;;;;;;6.38;2.92;;;;;;;;;;6113619;23;20018;-46
2022/11/13 05:12:38;;;;;;;6.03;3.43;;;;;;;;;;6082104;23;20587;-46
2022/11/13 05:15:05;;;;;;;5.32;2.83;;;;;;;;;;6133288;23;20013;-46
2022/11/13 05:17:33;;;;;;;7.45;3.70;;;;;;;;;;6119271;23;20555;-48
2022/11/13 05:19:59;;;;;;;6.90;2.67;;;;;;;;;;6122956;23;20025;-47
2022/11/13 05:22:26;;;;;;;7.65;2.95;;;;;;;;;;6113181;23;20604;-47
2022/11/13 05:24:52;;;;;;;4.50;2.47;;;;;;;;;;6118469;23;20519;-45
2022/11/13 05:27:19;;;;;;;6.75;2.65;;;;;;;;;;6119811;23;20021;-50
2022/11/13 05:29:45;;;;;;;7.75;3.38;;;;;;;;;;6109900;23;20017;-48
2022/11/13 05:32:12;;;;;;;5.55;2.88;;;;;;;;;;6113327;23;20021;-45
2022/11/13 05:34:40;;;;;;;13.38;3.72;;;;;;;;;;6078496;23;20360;-45
2022/11/13 05:37:06;;;;;;;12.83;4.10;;;;;;;;;;6123538;23;20088;-48
2022/11/13 05:39:33;;;;;;;7.43;3.38;;;;;;;;;;6117401;23;20435;-44
2022/11/13 05:41:59;;;;;;;7.15;3.40;;;;;;;;;;6127466;23;20378;-45
2022/11/13 05:44:26;;;;;;;4.95;2.58;;;;;;;;;;6109906;23;20045;-46
2022/11/13 05:46:52;;;;;;;6.15;2.97;;;;;;;;;;6123744;23;20313;-47
2022/11/13 05:49:19;;;;;;;4.87;2.57;;;;;;;;;;6111422;23;20021;-46
2022/11/13 05:51:46;;;;;;;6.45;3.97;;;;;;;;;;6114089;23;20084;-46
2022/11/13 05:54:14;;;;;;;8.05;3.10;;;;;;;;;;6093383;23;20483;-46
2022/11/13 05:56:41;;;;;;;7.65;4.55;;;;;;;;;;6092775;23;20025;-45
2022/11/13 05:59:07;;;;;;;4.88;2.67;;;;;;;;;;6107338;23;20029;-45
2022/11/13 06:01:35;;;;;;;6.87;3.33;;;;;;;;;;6089923;23;20072;-46
2022/11/13 06:04:05;;;;;;;8.00;4.45;;;;;;;;;;6102236;23;20621;-47
2022/11/13 06:06:32;;;;;;;8.75;3.03;;;;;;;;;;6104710;23;20027;-44
2022/11/13 06:09:02;;;;;;;7.28;3.05;;;;;;;;;;6099290;23;20299;-46
2022/11/13 06:11:29;;;;;;;6.85;3.30;;;;;;;;;;6101376;23;20088;-47
2022/11/13 06:13:59;;;;;;;6.03;2.33;;;;;;;;;;6071107;23;20092;-47
2022/11/13 06:16:27;;;;;;;5.00;2.70;;;;;;;;;;6117178;23;20018;-47
2022/11/13 06:18:55;;;;;;;13.25;3.95;;;;;;;;;;6106666;23;20022;-45
2022/11/13 06:21:23;;;;;;;8.90;3.35;;;;;;;;;;6127750;23;20017;-45
2022/11/13 06:23:51;;;;;;;6.45;3.03;;;;;;;;;;6115543;23;20399;-47
2022/11/13 06:26:21;;;;;;;6.37;3.23;;;;;;;;;;6121183;23;20352;-47
2022/11/13 06:28:48;;;;;;;9.65;3.97;;;;;;;;;;6104141;23;20029;-45
2022/11/13 06:31:16;;;;;;;5.88;2.42;;;;;;;;;;6091900;23;20021;-45
2022/11/13 06:33:43;;;;;;;6.25;3.05;;;;;;;;;;6100425;23;20018;-47
2022/11/13 06:36:13;;;;;;;7.50;3.42;;;;;;;;;;6100513;23;20171;-46
2022/11/13 06:38:40;;;;;;;6.33;3.10;;;;;;;;;;6101948;23;20427;-45
2022/11/13 06:41:06;;;;;;;6.57;3.80;;;;;;;;;;6102343;23;20048;-47
2022/11/13 06:43:36;;;;;;;7.95;3.83;;;;;;;;;;6107479;23;20253;-48
2022/11/13 06:46:03;;;;;;;6.45;3.20;;;;;;;;;;6076523;23;20014;-46
2022/11/13 06:48:30;;;;;;;7.03;3.45;;;;;;;;;;6103174;23;20425;-45
2022/11/13 06:51:00;;;;;;;4.93;1.93;;;;;;;;;;6099805;23;20120;-45
2022/11/13 06:53:26;;;;;;;9.15;3.72;;;;;;;;;;6106402;23;20491;-44
2022/11/13 06:55:53;;;;;;;7.15;3.40;;;;;;;;;;6104100;23;20048;-46
2022/11/13 06:58:19;;;;;;;6.18;3.45;;;;;;;;;;6125251;23;20124;-45
2022/11/13 07:00:47;;;;;;;6.30;3.95;;;;;;;;;;6084665;23;20642;-45
2022/11/13 07:03:15;;;;;;;5.63;3.07;;;;;;;;;;6100382;23;20017;-48
2022/11/13 07:05:43;;;;;;;5.63;3.47;;;;;;;;;;6097567;23;20234;-45
2022/11/13 07:08:10;;;;;;;6.93;2.85;;;;;;;;;;6098139;23;20072;-45
2022/11/13 07:10:37;;;;;;;6.05;2.90;;;;;;;;;;6120253;23;20014;-44
2022/11/13 07:13:04;;;;;;;5.40;2.63;;;;;;;;;;6120758;23;20126;-45
2022/11/13 07:15:33;;;;;;;10.23;2.50;;;;;;;;;;6125280;23;20068;-44
2022/11/13 07:18:08;;;;;;;6.45;3.17;;;;;;;;;;6106493;23;20025;-47
2022/11/13 07:20:35;;;;;;;9.00;3.53;;;;;;;;;;6112454;23;20452;-46
2022/11/13 07:23:02;;;;;;;9.50;3.03;;;;;;;;;;6121759;23;20018;-47
2022/11/13 07:25:29;;;;;;;6.57;2.75;;;;;;;;;;6070998;23;20750;-48
2022/11/13 07:28:02;;;;;;;5.80;2.73;;;;;;;;;;6115555;23;20020;-46
2022/11/13 07:30:29;;;;;;;6.03;2.40;;;;;;;;;;6129625;23;20025;-47
2022/11/13 07:32:55;;;;;;;6.55;1.88;;;;;;;;;;6111539;23;20013;-48
2022/11/13 07:35:23;;;;;;;3.70;1.67;;;;;;;;;;6124730;23;20021;-46
2022/11/13 07:37:50;;;;;;;5.03;2.25;;;;;;;;;;6104485;23;20017;-46
2022/11/13 07:40:17;;;;;;;9.30;3.17;;;;;;;;;;6111810;23;20018;-46
2022/11/13 07:42:43;;;;;;;6.15;2.78;;;;;;;;;;6090754;23;20369;-45
2022/11/13 07:45:10;;;;;;;7.53;3.50;;;;;;;;;;6108853;23;20588;-50
2022/11/13 07:47:37;;;;;;;5.05;3.03;;;;;;;;;;6124001;23;20021;-48
2022/11/13 07:50:04;;;;;;;5.88;2.67;;;;;;;;;;6121218;23;20026;-47
2022/11/13 07:52:31;;;;;;;7.03;3.17;;;;;;;;;;6124269;23;20013;-44
2022/11/13 07:54:58;;;;;;;6.63;3.40;;;;;;;;;;6120857;23;20364;-45
2022/11/13 07:57:26;;;;;;;8.20;3.45;;;;;;;;;;6123762;23;20032;-46
2022/11/13 07:59:52;;;;;;;6.88;2.60;;;;;;;;;;6114638;23;20025;-44
2022/11/13 08:02:18;;;;;;;6.13;2.45;;;;;;;;;;6127072;23;20018;-45
2022/11/13 08:04:45;;;;;;;4.57;2.33;;;;;;;;;;6123852;23;20056;-46
2022/11/13 08:07:12;;;;;;;5.93;2.42;;;;;;;;;;6121707;23;20021;-45
2022/11/13 08:09:40;;;;;;;4.80;2.15;;;;;;;;;;6105496;23;20052;-45
2022/11/13 08:12:06;;;;;;;8.48;2.58;;;;;;;;;;6133104;23;20022;-45
2022/11/13 08:14:33;;;;;;;3.67;1.63;;;;;;;;;;6115227;23;20021;-44
2022/11/13 08:16:59;;;;;;;6.43;2.10;;;;;;;;;;6134146;23;20021;-45
2022/11/13 08:19:26;;;;;;;7.25;3.08;;;;;;;;;;6109237;23;20022;-46
2022/11/13 08:21:52;;;;;;;7.90;2.30;;;;;;;;;;6129818;23;20072;-46
2022/11/13 08:24:19;;;;;;;6.65;2.95;;;;;;;;;;6107004;23;20021;-45
2022/11/13 08:26:47;;;;;;;6.18;2.20;;;;;;;;;;6047012;23;20028;-46
2022/11/13 08:29:13;;;;;;;5.63;2.00;;;;;;;;;;6104779;23;20018;-48
2022/11/13 08:31:40;;;;;;;6.63;3.22;;;;;;;;;;6098535;23;20014;-49
2022/11/13 08:34:06;;;;;;;7.35;2.75;;;;;;;;;;6103458;23;20018;-45
2022/11/13 08:36:35;;;;;;;9.00;2.22;;;;;;;;;;6104721;23;20309;-46
2022/11/13 08:39:02;;;;;;;5.75;2.88;;;;;;;;;;6106718;23;20018;-46
2022/11/13 08:41:28;;;;;;;6.20;2.43;;;;;;;;;;6046907;23;20461;-46
2022/11/13 08:43:59;;;;;;;8.40;2.58;;;;;;;;;;6036422;23;20464;-46
2022/11/13 08:46:25;;;;;;;4.88;2.08;;;;;;;;;;6042204;23;20388;-44
2022/11/13 08:48:58;;;;;;;5.20;1.73;;;;;;;;;;6048707;23;20346;-45
2022/11/13 08:51:24;;;;;;;4.13;1.80;;;;;;;;;;6042005;23;20492;-50
2022/11/13 08:53:54;;;;;;;3.93;1.00;;;;;;;;;;6019521;23;20498;-47
2022/11/13 08:56:22;;;;;;;6.30;2.58;;;;;;;;;;6051118;23;20049;-45
2022/11/13 08:58:49;;;;;;;4.15;2.13;;;;;;;;;;6052654;23;20025;-47
2022/11/13 09:01:23;;;;;;;5.30;2.60;;;;;;;;;;6023953;23;20353;-47
2022/11/13 09:03:50;;;;;;;7.05;2.65;;;;;;;;;;6018190;23;20017;-46
2022/11/13 09:06:20;;;;;;;6.30;2.50;;;;;;;;;;6047185;23;20483;-46
2022/11/13 09:08:46;;;;;;;5.43;2.22;;;;;;;;;;6049042;23;20025;-47
2022/11/13 09:11:13;;;;;;;4.78;2.20;;;;;;;;;;6056870;23;20026;-45
2022/11/13 09:13:43;;;;;;;4.82;2.05;;;;;;;;;;6043616;23;20516;-44
2022/11/13 09:16:10;;;;;;;7.50;2.42;;;;;;;;;;6055208;23;20718;-48
2022/11/13 09:18:40;;;;;;;4.67;1.90;;;;;;;;;;6047751;23;20342;-46
2022/11/13 09:21:07;;;;;;;5.85;2.38;;;;;;;;;;6055002;23;20017;-44
2022/11/13 09:23:34;;;;;;;3.90;1.88;;;;;;;;;;6053886;23;20017;-45
2022/11/13 09:26:03;;;;;;;4.50;1.38;;;;;;;;;;6046118;23;20439;-46
2022/11/13 09:28:31;;;;;;;4.28;1.80;;;;;;;;;;6050859;23;20292;-45
2022/11/13 09:31:00;;;;;;;3.77;1.77;;;;;;;;;;6045309;23;20290;-45
2022/11/13 09:33:27;;;;;;;4.10;1.58;;;;;;;;;;6042442;23;20033;-46
2022/11/13 09:36:00;;;;;;;4.18;2.00;;;;;;;;;;6052373;23;20024;-45
2022/11/13 09:38:28;;;;;;;4.38;1.92;;;;;;;;;;6050088;23;20032;-46
2022/11/13 09:40:56;;;;;;;5.22;2.55;;;;;;;;;;6087544;23;20028;-46
2022/11/13 09:43:31;;;;;;;6.37;2.60;;;;;;;;;;6054903;23;20100;-45
2022/11/13 09:46:06;;;;;;;4.82;1.73;;;;;;;;;;6073878;23;20080;-46
2022/11/13 09:48:35;;;;;;;5.53;2.38;;;;;;;;;;6093155;23;20044;-44
2022/11/13 09:51:04;;;;;;;6.75;1.73;;;;;;;;;;6056038;23;20026;-46
2022/11/13 09:53:39;;;;;;;4.85;1.80;;;;;;;;;;6091931;23;20072;-47
2022/11/13 09:56:09;;;;;;;4.73;1.97;;;;;;;;;;6097500;23;20107;-45
2022/11/13 09:58:43;;;;;;;5.18;1.55;;;;;;;;;;6103778;23;20396;-45
2022/11/13 10:01:16;;;;;;;4.25;2.25;;;;;;;;;;6103260;23;20017;-47
2022/11/13 10:03:46;;;;;;;4.40;2.35;;;;;;;;;;6104400;23;20017;-44
2022/11/13 10:06:18;;;;;;;6.07;2.33;;;;;;;;;;6105986;23;20527;-47
2022/11/13 10:08:49;;;;;;;5.40;2.33;;;;;;;;;;6106950;23;20018;-47
2022/11/13 10:11:21;;;;;;;2.95;1.00;;;;;;;;;;6103065;23;20017;-46
2022/11/13 10:13:49;;;;;;;10.32;2.55;;;;;;;;;;6108642;23;20025;-46
2022/11/13 10:16:20;;;;;;;6.95;3.45;;;;;;;;;;6055663;23;20380;-46
2022/11/13 10:18:49;;;;;;;3.22;1.38;;;;;;;;;;6107715;23;20025;-48
2022/11/13 10:21:26;;;;;;;5.17;2.27;;;;;;;;;;6102076;23;20313;-46
2022/11/13 10:23:56;;;;;;;4.05;1.52;;;;;;;;;;6105229;23;20096;-46
2022/11/13 10:26:24;;;;;;;7.03;2.75;;;;;;;;;;6109269;23;20021;-48
2022/11/13 10:28:57;;;;;;;4.13;1.98;;;;;;;;;;6096941;23;20433;-47
2022/11/13 10:31:24;;;;;;;6.40;1.35;;;;;;;;;;6066863;23;20072;-46
2022/11/13 10:33:57;;;;;;;4.90;2.00;;;;;;;;;;6094185;23;20824;-49
2022/11/13 10:36:32;;;;;;;3.67;1.52;;;;;;;;;;6032431;23;20119;-47
2022/11/13 10:39:00;;;;;;;5.00;2.20;;;;;;;;;;6076464;23;20771;-45
2022/11/13 10:41:26;;;;;;;3.17;1.55;;;;;;;;;;6095530;23;20017;-46
2022/11/13 10:43:54;;;;;;;5.55;1.98;;;;;;;;;;6050338;23;20025;-45
2022/11/13 10:46:21;;;;;;;3.93;1.43;;;;;;;;;;6090612;23;20017;-49
2022/11/13 10:48:51;;;;;;;4.68;1.77;;;;;;;;;;6104032;23;20330;-47
2022/11/13 10:51:34;;;;;;;3.72;1.80;;;;;;;;;;6045192;23;20033;-45
2022/11/13 10:54:23;;;;;;;4.35;1.77;;;;;;;;;;6017158;23;20732;-46
2022/11/13 10:56:56;;;;;;;4.43;1.45;;;;;;;;;;6064042;23;20145;-47
2022/11/13 10:59:24;;;;;;;3.33;1.07;;;;;;;;;;6055328;23;20669;-45
2022/11/13 11:01:51;;;;;;;4.63;1.85;;;;;;;;;;6060650;23;20013;-48
2022/11/13 11:04:20;;;;;;;4.88;2.30;;;;;;;;;;6091376;23;20024;-47
2022/11/13 11:06:49;;;;;;;3.53;1.63;;;;;;;;;;6067920;23;21002;-46
2022/11/13 11:09:29;;;;;;;3.92;1.60;;;;;;;;;;6015428;23;20748;-45
2022/11/13 11:12:22;;;;;;;4.67;1.63;;;;;;;;;;6029721;23;20388;-46
2022/11/13 11:15:04;;;;;;;4.43;1.75;;;;;;;;;;6038751;23;20084;-45
2022/11/13 11:17:37;;;;;;;4.57;2.28;;;;;;;;;;6032140;23;20400;-45
2022/11/13 11:20:09;;;;;;;4.75;2.05;;;;;;;;;;6001987;23;20214;-47
2022/11/13 11:22:38;;;;;;;3.92;2.00;;;;;;;;;;6037043;23;20018;-45
2022/11/13 11:25:12;;;;;;;4.40;1.53;;;;;;;;;;6043475;23;20836;-47
2022/11/13 11:27:41;;;;;;;4.95;2.35;;;;;;;;;;6058957;23;20565;-48
2022/11/13 11:30:15;;;;;;;4.85;1.67;;;;;;;;;;6042247;23;20329;-45
2022/11/13 11:32:43;;;;;;;4.63;1.83;;;;;;;;;;6110100;23;20727;-48
2022/11/13 11:35:18;;;;;;;4.95;2.35;;;;;;;;;;6071064;23;20022;-45
2022/11/13 11:37:49;;;;;;;2.97;1.00;;;;;;;;;;6050202;23;20048;-48
2022/11/13 11:40:25;;;;;;;3.60;1.90;;;;;;;;;;6033669;23;20813;-52
2022/11/13 11:42:55;;;;;;;2.50;0.90;;;;;;;;;;6101749;23;20463;-46
2022/11/13 11:45:24;;;;;;;3.15;1.23;;;;;;;;;;6092390;23;20021;-48
2022/11/13 11:47:52;;;;;;;3.25;0.98;;;;;;;;;;6115271;23;20137;-46
2022/11/13 11:50:26;;;;;;;3.97;1.50;;;;;;;;;;6123559;23;20049;-47
2022/11/13 11:52:56;;;;;;;4.00;1.48;;;;;;;;;;6121839;23;20025;-48
2022/11/13 11:55:38;;;;;;;4.43;1.90;;;;;;;;;;6119048;23;20013;-47
2022/11/13 11:58:06;;;;;;;3.13;1.02;;;;;;;;;;6124262;23;20362;-46
2022/11/13 12:00:37;;;;;;;3.80;1.52;;;;;;;;;;6112594;23;20053;-46
2022/11/13 12:03:27;;;;;;;3.10;1.23;;;;;;;;;;6117648;23;20596;-45
2022/11/13 12:06:00;;;;;;;4.78;1.90;;;;;;;;;;6128631;23;20028;-50
2022/11/13 12:08:30;;;;;;;4.05;1.30;;;;;;;;;;6131808;23;20032;-47
2022/11/13 12:11:01;;;;;;;3.83;1.80;;;;;;;;;;6117340;23;20049;-47
2022/11/13 12:13:28;;;;;;;4.47;2.00;;;;;;;;;;6112449;23;20014;-46
2022/11/13 12:15:58;;;;;;;6.60;1.57;;;;;;;;;;6114065;23;20442;-48
2022/11/13 12:18:29;;;;;;;3.47;1.48;;;;;;;;;;6120791;23;20037;-46
2022/11/13 12:21:00;;;;;;;3.30;1.42;;;;;;;;;;6121471;23;20097;-47
2022/11/13 12:23:34;;;;;;;4.65;1.70;;;;;;;;;;6124095;23;20024;-47
2022/11/13 12:26:07;;;;;;;4.10;1.42;;;;;;;;;;6112315;23;20013;-47
2022/11/13 12:28:39;;;;;;;3.03;1.10;;;;;;;;;;6118247;23;20017;-44
2022/11/13 12:31:11;;;;;;;3.95;1.00;;;;;;;;;;6131878;23;20040;-46
2022/11/13 12:33:42;;;;;;;2.53;0.65;;;;;;;;;;6110398;23;20510;-46
2022/11/13 12:36:10;;;;;;;3.03;0.93;;;;;;;;;;6128088;23;20024;-45
2022/11/13 12:38:40;;;;;;;3.17;1.13;;;;;;;;;;6114477;23;20621;-47
2022/11/13 12:41:16;;;;;;;3.93;1.60;;;;;;;;;;6115128;23;20059;-48
2022/11/13 12:43:49;;;;;;;4.43;1.40;;;;;;;;;;6077665;23;20484;-48
2022/11/13 12:46:16;;;;;;;3.30;1.05;;;;;;;;;;6122269;23;20017;-45
2022/11/13 12:48:44;;;;;;;3.05;1.20;;;;;;;;;;6123958;23;20024;-49
2022/11/13 12:51:11;;;;;;;3.85;1.55;;;;;;;;;;6120028;23;20748;-47
2022/11/13 12:53:45;;;;;;;7.00;1.67;;;;;;;;;;6091418;23;20061;-48
2022/11/13 12:56:18;;;;;;;5.55;2.17;;;;;;;;;;6124407;23;20014;-45
2022/11/13 12:58:55;;;;;;;3.08;1.30;;;;;;;;;;6106306;23;20520;-46
2022/11/13 13:01:22;;;;;;;5.88;1.73;;;;;;;;;;6116796;23;20076;-50
2022/11/13 13:04:00;;;;;;;3.35;1.50;;;;;;;;;;6074372;23;20018;-44
2022/11/13 13:06:38;;;;;;;7.77;2.63;;;;;;;;;;6120023;23;20070;-45
2022/11/13 13:09:21;;;;;;;3.33;1.45;;;;;;;;;;6122931;23;20369;-46
2022/11/13 13:11:51;;;;;;;4.97;1.70;;;;;;;;;;6107184;23;20034;-48
2022/11/13 13:14:25;;;;;;;7.95;1.92;;;;;;;;;;6092964;23;20017;-48
2022/11/13 13:16:52;;;;;;;3.85;1.60;;;;;;;;;;6117491;23;20022;-50
2022/11/13 13:19:24;;;;;;;3.67;1.30;;;;;;;;;;6117022;23;20045;-49
2022/11/13 13:21:51;;;;;;;4.72;1.58;;;;;;;;;;6115164;23;20072;-47
2022/11/13 13:24:28;;;;;;;2.95;1.05;;;;;;;;;;6095148;23;20023;-47
2022/11/13 13:26:56;;;;;;;3.47;1.77;;;;;;;;;;6121340;23;20017;-46
2022/11/13 13:29:24;;;;;;;3.85;1.73;;;;;;;;;;6123462;23;20508;-47
2022/11/13 13:31:54;;;;;;;3.07;1.10;;;;;;;;;;6112028;23;20021;-47
2022/11/13 13:34:25;;;;;;;2.92;1.02;;;;;;;;;;6120771;23;20010;-48
2022/11/13 13:36:53;;;;;;;4.03;1.35;;;;;;;;;;6115374;23;20447;-49
2022/11/13 13:39:27;;;;;;;4.25;1.70;;;;;;;;;;6111927;23;20014;-48
2022/11/13 13:42:03;;;;;;;3.58;1.33;;;;;;;;;;6125957;23;20040;-48
2022/11/13 13:44:52;;;;;;;3.67;1.80;;;;;;;;;;6092774;23;20122;-47
2022/11/13 13:47:24;;;;;;;3.10;0.93;;;;;;;;;;6114240;23;20017;-48
2022/11/13 13:49:51;;;;;;;4.18;1.10;;;;;;;;;;6118609;23;20018;-49
2022/11/13 13:52:26;;;;;;;4.38;1.50;;;;;;;;;;6109011;23;20099;-49
2022/11/13 13:54:53;;;;;;;3.35;1.00;;;;;;;;;;6107050;23;20301;-47
2022/11/13 13:57:22;;;;;;;3.53;1.30;;;;;;;;;;6112859;23;20044;-46
2022/11/13 13:59:49;;;;;;;4.53;1.98;;;;;;;;;;6121901;23;20520;-45
2022/11/13 14:02:16;;;;;;;4.10;1.63;;;;;;;;;;6115904;23;20017;-47
2022/11/13 14:04:45;;;;;;;2.92;1.23;;;;;;;;;;6108022;23;20013;-47
2022/11/13 14:07:23;;;;;;;3.65;1.38;;;;;;;;;;6107292;23;20037;-46
2022/11/13 14:09:49;;;;;;;2.90;1.07;;;;;;;;;;6113312;23;20080;-48
2022/11/13 14:12:17;;;;;;;3.17;1.17;;;;;;;;;;6121759;23;20556;-47
2022/11/13 14:14:45;;;;;;;3.53;1.00;;;;;;;;;;6119201;23;20017;-49
2022/11/13 14:17:22;;;;;;;4.18;1.35;;;;;;;;;;6119448;23;20017;-45
2022/11/13 14:19:49;;;;;;;3.08;1.05;;;;;;;;;;6120694;23;20080;-48
2022/11/13 14:22:15;;;;;;;3.50;1.30;;;;;;;;;;6101712;23;20411;-46
2022/11/13 14:24:44;;;;;;;3.05;1.10;;;;;;;;;;6128288;23;20040;-46
2022/11/13 14:27:13;;;;;;;3.60;1.08;;;;;;;;;;6115758;23;20080;-45
2022/11/13 14:29:41;;;;;;;3.55;1.38;;;;;;;;;;6118688;23;20075;-47
2022/11/13 14:32:14;;;;;;;4.80;2.10;;;;;;;;;;6079728;23;20349;-50
2022/11/13 14:34:44;;;;;;;3.53;1.13;;;;;;;;;;6055421;23;20344;-47
2022/11/13 14:37:18;;;;;;;4.03;1.70;;;;;;;;;;6033978;23;20022;-46
2022/11/13 14:39:45;;;;;;;3.35;1.27;;;;;;;;;;6060112;23;20017;-45
2022/11/13 14:42:16;;;;;;;4.10;1.45;;;;;;;;;;6089657;23;20446;-45
2022/11/13 14:44:42;;;;;;;4.05;1.60;;;;;;;;;;6084292;23;20464;-49
2022/11/13 14:47:21;;;;;;;3.87;1.33;;;;;;;;;;6097990;23;20018;-46
2022/11/13 14:49:49;;;;;;;2.85;0.75;;;;;;;;;;6084662;23;20072;-48
2022/11/13 14:52:35;;;;;;;3.25;0.82;;;;;;;;;;6077066;23;20480;-46